Time;durP1;ratioP1;P1;durP2;ratioP2;P2;SDS_P1;SDS_P2;PMS_P1;PMS_P2;Temp;Humidity;BMP_temperature;BMP_pressure;BME280_temperature;BME280_humidity;BME280_pressure;Samples;Min_cycle;Max_cycle;Signal;HPM_P1;HPM_P2
2023/12/29 00:00:39;;;;;;;90.30;86.10;;;;;;;11.76;67.01;100721.13;5015697;28;20506;-71
2023/12/29 00:03:05;;;;;;;89.65;85.70;;;;;;;11.76;67.20;100723.00;5024825;28;20037;-71
2023/12/29 00:05:30;;;;;;;88.97;85.05;;;;;;;11.74;67.44;100709.72;5029311;28;20058;-73
2023/12/29 00:07:56;;;;;;;90.05;85.55;;;;;;;11.74;67.29;100703.50;5011589;28;20390;-71
2023/12/29 00:10:21;;;;;;;88.07;84.03;;;;;;;11.73;67.35;100707.28;5029559;28;20114;-72
2023/12/29 00:12:46;;;;;;;93.43;88.68;;;;;;;11.72;67.55;100701.06;5014676;28;20045;-72
2023/12/29 00:15:12;;;;;;;85.70;81.80;;;;;;;11.72;67.22;100713.75;5018309;28;20036;-71
2023/12/29 00:17:40;;;;;;;88.53;84.63;;;;;;;11.74;67.34;100698.09;5029705;28;20041;-72
2023/12/29 00:20:07;;;;;;;90.67;86.57;;;;;;;11.74;67.22;100700.78;5032676;28;20033;-71
2023/12/29 00:22:33;;;;;;;85.18;81.38;;;;;;;11.74;67.52;100692.66;5039030;28;20060;-71
2023/12/29 00:24:58;;;;;;;87.20;83.18;;;;;;;11.77;67.34;100701.13;5011919;28;20065;-71
2023/12/29 00:27:24;;;;;;;90.20;85.95;;;;;;;11.78;67.41;100701.94;5027212;28;20049;-71
2023/12/29 00:29:49;;;;;;;88.50;84.47;;;;;;;11.77;67.61;100708.41;5014040;28;20450;-71
2023/12/29 00:32:14;;;;;;;91.57;87.43;;;;;;;11.77;67.45;100697.56;5021048;28;20035;-73
2023/12/29 00:34:40;;;;;;;94.88;90.18;;;;;;;11.77;67.34;100689.44;5019706;28;20026;-72
2023/12/29 00:37:06;;;;;;;92.22;87.72;;;;;;;11.77;67.15;100687.59;5030587;28;20033;-71
2023/12/29 00:39:38;;;;;;;89.25;84.63;;;;;;;11.78;67.50;100688.41;5025027;28;20117;-74
2023/12/29 00:42:06;;;;;;;90.38;86.00;;;;;;;11.80;67.51;100678.16;5018576;28;20037;-71
2023/12/29 00:44:32;;;;;;;87.72;83.50;;;;;;;11.77;67.85;100687.59;5015111;28;20474;-73
2023/12/29 00:46:59;;;;;;;87.30;83.32;;;;;;;11.75;67.98;100697.84;5023669;28;20038;-70
2023/12/29 00:49:24;;;;;;;87.13;83.30;;;;;;;11.77;67.95;100684.03;5028407;28;20038;-73
2023/12/29 00:51:50;;;;;;;93.55;88.18;;;;;;;11.77;67.67;100684.88;5030474;28;20072;-71
2023/12/29 00:54:15;;;;;;;93.07;88.78;;;;;;;11.80;67.88;100683.56;5026882;28;20033;-72
2023/12/29 00:56:41;;;;;;;92.03;88.03;;;;;;;11.81;67.54;100679.78;5032230;28;20474;-71
2023/12/29 00:59:07;;;;;;;90.25;86.03;;;;;;;11.82;67.70;100686.84;5025630;28;20033;-73
2023/12/29 01:01:36;;;;;;;93.50;89.32;;;;;;;11.81;67.76;100683.28;5034179;28;20506;-71
2023/12/29 01:04:01;;;;;;;;;;;;;;;11.82;67.84;100692.25;5010866;28;20493;-72
2023/12/29 01:06:27;;;;;;;86.95;82.32;;;;;;;11.79;68.09;100684.63;5023176;28;19942;-72
2023/12/29 01:08:52;;;;;;;89.25;85.25;;;;;;;11.76;68.10;100693.25;5025026;28;20410;-71
2023/12/29 01:11:18;;;;;;;91.13;86.63;;;;;;;11.76;67.99;100680.53;5014189;28;20679;-73
2023/12/29 01:13:43;;;;;;;88.45;84.35;;;;;;;11.76;68.42;100695.94;5024985;28;20156;-73
2023/12/29 01:16:08;;;;;;;91.30;87.20;;;;;;;11.75;68.19;100680.78;5038518;28;20121;-72
2023/12/29 01:18:34;;;;;;;89.53;85.32;;;;;;;11.76;68.05;100682.41;5021526;28;20037;-72
2023/12/29 01:20:59;;;;;;;90.22;86.13;;;;;;;11.75;68.34;100673.50;5024196;28;20069;-72
2023/12/29 01:23:24;;;;;;;86.88;82.90;;;;;;;11.75;68.27;100665.38;5013628;28;20042;-72
2023/12/29 01:25:50;;;;;;;89.20;85.25;;;;;;;11.76;68.34;100677.00;5015483;28;20045;-72
2023/12/29 01:28:15;;;;;;;90.90;86.80;;;;;;;11.77;68.34;100679.47;5030823;28;20060;-71
2023/12/29 01:30:40;;;;;;;89.97;86.07;;;;;;;11.78;68.14;100667.56;5035186;28;20491;-73
2023/12/29 01:33:06;;;;;;;91.03;86.60;;;;;;;11.79;68.29;100658.41;5016618;28;20119;-71
2023/12/29 01:35:31;;;;;;;88.00;84.13;;;;;;;11.76;68.19;100663.47;5034345;28;20040;-71
2023/12/29 01:37:57;;;;;;;86.95;83.15;;;;;;;11.79;68.36;100669.22;5033312;28;20072;-72
2023/12/29 01:40:22;;;;;;;90.15;85.85;;;;;;;11.81;68.00;100666.25;5034019;28;20033;-71
2023/12/29 01:42:48;;;;;;;94.57;90.38;;;;;;;11.82;67.96;100667.91;5026058;28;20034;-71
2023/12/29 01:45:22;;;;;;;92.38;88.15;;;;;;;11.80;67.83;100661.91;5025953;28;20038;-73
2023/12/29 01:47:48;;;;;;;91.20;86.28;;;;;;;11.79;68.30;100666.50;5023007;28;20029;-72
2023/12/29 01:50:14;;;;;;;91.30;87.20;;;;;;;11.82;68.07;100657.06;5014225;28;20116;-71
2023/12/29 01:52:42;;;;;;;89.75;85.70;;;;;;;11.82;67.59;100659.78;5024037;28;20152;-71
2023/12/29 01:55:12;;;;;;;89.13;85.23;;;;;;;11.79;68.17;100661.09;5031969;28;20030;-75
2023/12/29 01:57:38;;;;;;;91.97;87.78;;;;;;;11.81;68.08;100653.53;5031400;28;20292;-72
2023/12/29 02:00:05;;;;;;;91.63;87.32;;;;;;;11.78;67.98;100655.94;5019930;28;20462;-72
2023/12/29 02:02:32;;;;;;;93.65;89.45;;;;;;;11.75;68.12;100662.66;5019850;28;20117;-73
2023/12/29 02:04:58;;;;;;;90.60;86.55;;;;;;;11.72;68.25;100679.41;5023842;28;20612;-72
2023/12/29 02:07:23;;;;;;;91.75;87.65;;;;;;;11.75;68.12;100675.38;5007285;28;20037;-71
2023/12/29 02:09:51;;;;;;;87.32;83.47;;;;;;;11.75;68.13;100665.38;5021478;28;20068;-72
2023/12/29 02:12:17;;;;;;;88.68;84.68;;;;;;;11.76;68.13;100668.88;5020485;28;20034;-72
2023/12/29 02:14:42;;;;;;;89.65;85.72;;;;;;;11.75;68.02;100673.50;5027013;28;20058;-71
2023/12/29 02:17:12;;;;;;;90.68;86.70;;;;;;;11.78;68.09;100666.75;5026493;28;20100;-70
2023/12/29 02:19:40;;;;;;;87.70;83.90;;;;;;;11.79;68.21;100669.22;5029718;28;20033;-71
2023/12/29 02:22:07;;;;;;;90.93;86.53;;;;;;;11.80;67.84;100670.03;5025291;28;20489;-71
2023/12/29 02:24:37;;;;;;;87.43;83.57;;;;;;;11.78;68.10;100664.03;5028496;28;20026;-71
2023/12/29 02:27:18;;;;;;;86.70;82.85;;;;;;;11.78;67.94;100666.75;5020950;28;20052;-71
2023/12/29 02:29:48;;;;;;;89.50;85.45;;;;;;;11.77;68.20;100667.81;5026277;28;20037;-72
2023/12/29 02:32:18;;;;;;;90.05;86.03;;;;;;;11.77;67.80;100673.22;5014203;28;20041;-72
2023/12/29 02:34:47;;;;;;;95.70;91.22;;;;;;;11.75;68.04;100669.97;5017194;28;20124;-71
2023/12/29 02:37:12;;;;;;;90.05;86.00;;;;;;;11.71;67.77;100664.22;5014848;28;20037;-76
2023/12/29 02:39:38;;;;;;;91.07;87.03;;;;;;;11.70;67.93;100668.81;5013248;28;20038;-71
2023/12/29 02:42:04;;;;;;;86.82;82.82;;;;;;;11.72;67.88;100665.88;5036074;28;20491;-70
2023/12/29 02:44:29;;;;;;;87.10;83.20;;;;;;;11.73;68.00;100674.81;5030724;28;20482;-72
2023/12/29 02:46:55;;;;;;;89.57;85.47;;;;;;;11.71;67.85;100677.75;5022058;28;20042;-72
2023/12/29 02:49:20;;;;;;;91.72;87.28;;;;;;;11.73;67.99;100677.50;5024815;28;20033;-72
2023/12/29 02:51:47;;;;;;;90.53;86.13;;;;;;;11.72;67.91;100682.13;5026424;28;20029;-72
2023/12/29 02:54:13;;;;;;;89.97;85.75;;;;;;;11.73;67.73;100681.03;5031573;28;20049;-74
2023/12/29 02:56:38;;;;;;;88.80;84.65;;;;;;;11.73;68.00;100672.09;5032723;28;20055;-71
2023/12/29 02:59:04;;;;;;;88.65;84.60;;;;;;;11.73;67.73;100672.91;5017390;28;20046;-71
2023/12/29 03:01:29;;;;;;;90.95;86.75;;;;;;;11.73;67.58;100672.09;5028761;28;20172;-71
2023/12/29 03:03:55;;;;;;;88.47;84.60;;;;;;;11.73;67.62;100667.50;5016679;28;20034;-71
2023/12/29 03:06:20;;;;;;;92.55;88.35;;;;;;;11.74;67.43;100657.50;5029325;28;20034;-73
2023/12/29 03:08:45;;;;;;;90.65;86.57;;;;;;;11.73;67.54;100664.00;5013103;28;20547;-72
2023/12/29 03:11:11;;;;;;;89.50;85.20;;;;;;;11.73;67.57;100658.56;5015187;28;20033;-71
2023/12/29 03:13:36;;;;;;;90.05;85.97;;;;;;;11.72;67.79;100679.41;5014071;28;20650;-72
2023/12/29 03:16:02;;;;;;;90.22;85.70;;;;;;;11.71;67.89;100664.22;5022707;28;20513;-72
2023/12/29 03:18:27;;;;;;;90.05;86.05;;;;;;;11.70;67.61;100662.59;5023188;28;20049;-71
2023/12/29 03:20:52;;;;;;;91.93;87.53;;;;;;;11.68;67.36;100660.13;5045074;28;20040;-72
2023/12/29 03:23:18;;;;;;;88.18;84.32;;;;;;;11.70;67.75;100654.47;5025995;28;20133;-71
2023/12/29 03:25:43;;;;;;;88.82;84.88;;;;;;;11.69;67.60;100659.09;5012377;28;20060;-72
2023/12/29 03:28:09;;;;;;;91.68;87.43;;;;;;;11.68;67.47;100665.53;5023320;28;20080;-71
2023/12/29 03:30:34;;;;;;;88.70;84.15;;;;;;;11.67;67.35;100646.88;5025646;28;20402;-71
2023/12/29 03:32:59;;;;;;;92.40;88.30;;;;;;;11.65;67.39;100649.81;5039916;28;20113;-71
2023/12/29 03:35:25;;;;;;;90.78;86.18;;;;;;;11.64;67.69;100648.19;5021714;28;20037;-71
2023/12/29 03:37:50;;;;;;;91.25;87.13;;;;;;;11.67;67.68;100644.16;5020536;28;20072;-72
2023/12/29 03:40:16;;;;;;;86.75;82.88;;;;;;;11.66;67.46;100666.88;5012871;28;20483;-71
2023/12/29 03:42:41;;;;;;;92.60;88.30;;;;;;;11.63;67.78;100662.78;5022459;28;20477;-72
2023/12/29 03:45:07;;;;;;;93.03;88.78;;;;;;;11.64;67.76;100663.59;5024754;28;20061;-72
2023/12/29 03:47:32;;;;;;;86.88;82.97;;;;;;;11.66;67.59;100658.75;5020637;28;20041;-71
2023/12/29 03:49:58;;;;;;;87.75;83.75;;;;;;;11.65;67.30;100651.72;5028727;28;20462;-73
2023/12/29 03:52:23;;;;;;;90.13;86.05;;;;;;;11.64;67.51;100650.06;5016396;28;20045;-71
2023/12/29 03:54:49;;;;;;;90.03;86.10;;;;;;;11.66;67.45;100662.28;5006510;28;20561;-72
2023/12/29 03:57:14;;;;;;;87.35;83.53;;;;;;;11.68;67.39;100656.63;5020551;28;20211;-72
2023/12/29 03:59:39;;;;;;;88.72;84.50;;;;;;;11.68;67.31;100648.50;5014269;28;20034;-72
2023/12/29 04:02:05;;;;;;;87.78;83.72;;;;;;;11.68;67.61;100652.03;5023683;28;20087;-71
2023/12/29 04:04:30;;;;;;;92.25;88.05;;;;;;;11.70;67.45;100660.72;5026932;28;20196;-72
2023/12/29 04:06:56;;;;;;;88.60;84.63;;;;;;;11.69;67.47;100647.41;5021199;28;20401;-71
2023/12/29 04:09:21;;;;;;;91.38;87.38;;;;;;;11.67;67.68;100657.69;5022712;28;20112;-73
2023/12/29 04:11:46;;;;;;;90.47;86.15;;;;;;;11.67;67.57;100663.94;5017284;28;20152;-71
2023/12/29 04:14:12;;;;;;;91.75;87.03;;;;;;;11.69;67.49;100658.25;5018918;28;20029;-72
2023/12/29 04:16:38;;;;;;;91.40;87.18;;;;;;;11.70;67.57;100662.59;5021867;28;20192;-71
2023/12/29 04:19:04;;;;;;;88.50;84.47;;;;;;;11.70;67.45;100663.41;5026917;28;20099;-71
2023/12/29 04:21:29;;;;;;;91.28;87.20;;;;;;;11.69;67.60;100656.38;5027795;28;20049;-71
2023/12/29 04:23:54;;;;;;;90.20;85.38;;;;;;;11.70;67.33;100655.28;5029518;28;20037;-72
2023/12/29 04:26:20;;;;;;;89.40;85.22;;;;;;;11.66;67.19;100659.56;5026765;28;20056;-72
2023/12/29 04:28:45;;;;;;;89.22;85.30;;;;;;;11.63;67.64;100651.16;5024587;28;20476;-72
2023/12/29 04:31:11;;;;;;;89.03;85.05;;;;;;;11.64;67.53;100656.31;5027524;28;20049;-73
2023/12/29 04:33:36;;;;;;;89.95;85.85;;;;;;;11.64;67.19;100659.03;5018906;28;20552;-72
2023/12/29 04:36:02;;;;;;;91.60;87.40;;;;;;;11.68;67.49;100662.03;5029280;28;20126;-71
2023/12/29 04:38:27;;;;;;;92.97;88.75;;;;;;;11.66;67.05;100664.16;5017370;28;20478;-71
2023/12/29 04:40:53;;;;;;;90.85;86.05;;;;;;;11.64;67.32;100647.34;5025509;28;20037;-71
2023/12/29 04:43:18;;;;;;;89.85;85.30;;;;;;;11.64;67.50;100659.03;5015650;28;20105;-71
2023/12/29 04:45:44;;;;;;;89.22;85.25;;;;;;;11.63;67.09;100646.53;5022747;28;20224;-71
2023/12/29 04:48:09;;;;;;;88.90;84.95;;;;;;;11.64;67.56;100650.91;5027757;28;20036;-71
2023/12/29 04:50:34;;;;;;;91.47;86.57;;;;;;;11.63;67.18;100662.78;5018309;28;20130;-71
2023/12/29 04:53:00;;;;;;;86.38;82.47;;;;;;;11.64;67.16;100663.59;5016662;28;20038;-70
2023/12/29 04:55:25;;;;;;;86.07;82.20;;;;;;;11.63;67.31;100651.97;5021391;28;20068;-71
2023/12/29 04:57:51;;;;;;;87.63;83.40;;;;;;;11.63;67.37;100653.84;5021256;28;20478;-70
2023/12/29 05:00:16;;;;;;;85.13;80.88;;;;;;;11.62;67.40;100655.75;5012479;28;20034;-70
2023/12/29 05:02:42;;;;;;;90.75;86.60;;;;;;;11.62;67.10;100660.34;5021147;28;20620;-70
2023/12/29 05:05:08;;;;;;;89.18;84.88;;;;;;;11.61;67.35;100664.09;5024698;28;20046;-70
2023/12/29 05:07:33;;;;;;;89.25;85.15;;;;;;;11.61;67.41;100667.63;5022154;28;20393;-70
2023/12/29 05:09:58;;;;;;;88.68;84.47;;;;;;;11.61;67.27;100664.09;5016191;28;20060;-71
2023/12/29 05:12:24;;;;;;;88.60;84.68;;;;;;;11.61;67.36;100661.41;5024880;28;20040;-72
2023/12/29 05:14:49;;;;;;;88.13;84.13;;;;;;;11.60;67.37;100670.59;5014721;28;20070;-71
2023/12/29 05:17:15;;;;;;;84.70;80.93;;;;;;;11.60;67.47;100665.19;5012762;28;20045;-72
2023/12/29 05:19:40;;;;;;;90.45;86.25;;;;;;;11.60;67.50;100665.19;5012392;28;20026;-70
2023/12/29 05:22:05;;;;;;;87.38;83.57;;;;;;;11.60;67.71;100651.66;5011393;28;20121;-70
2023/12/29 05:24:31;;;;;;;92.93;88.63;;;;;;;11.59;67.30;100656.25;5010910;28;20041;-70
2023/12/29 05:26:56;;;;;;;89.15;84.95;;;;;;;11.59;67.59;100650.00;5013391;28;20116;-71
2023/12/29 05:29:21;;;;;;;89.43;85.32;;;;;;;11.60;67.47;100657.06;5032985;28;20421;-69
2023/12/29 05:31:47;;;;;;;92.32;88.13;;;;;;;11.60;67.34;100649.75;5032703;28;20061;-71
2023/12/29 05:34:12;;;;;;;88.13;84.13;;;;;;;11.61;67.72;100656.78;5024731;28;20485;-71
2023/12/29 05:36:38;;;;;;;92.65;88.15;;;;;;;11.62;67.68;100644.94;5013339;28;20129;-69
2023/12/29 05:39:04;;;;;;;90.13;85.75;;;;;;;11.64;67.45;100645.50;5019826;28;20230;-69
2023/12/29 05:41:29;;;;;;;87.07;82.55;;;;;;;11.63;67.72;100633.03;5045234;28;20045;-71
2023/12/29 05:43:56;;;;;;;89.88;85.78;;;;;;;11.61;67.43;100632.44;5016816;28;20379;-71
2023/12/29 05:46:22;;;;;;;90.90;86.80;;;;;;;11.61;67.67;100629.75;5030404;28;20037;-70
2023/12/29 05:48:47;;;;;;;91.18;86.88;;;;;;;11.62;67.61;100620.56;5014362;28;20393;-71
2023/12/29 05:51:13;;;;;;;91.60;87.60;;;;;;;11.65;67.62;100639.00;5018334;28;20057;-70
2023/12/29 05:53:42;;;;;;;90.22;86.20;;;;;;;11.64;67.45;100634.66;5020888;28;20532;-69
2023/12/29 05:56:12;;;;;;;91.07;86.97;;;;;;;11.68;67.44;100632.25;5025217;28;20080;-71
2023/12/29 05:58:37;;;;;;;89.13;85.13;;;;;;;11.69;67.49;100632.03;5042708;28;20132;-70
2023/12/29 06:01:03;;;;;;;88.35;84.47;;;;;;;11.68;67.42;100630.38;5024728;28;20487;-71
2023/12/29 06:03:28;;;;;;;91.13;86.45;;;;;;;11.68;67.75;100629.56;5026080;28;20062;-70
2023/12/29 06:05:54;;;;;;;91.95;87.90;;;;;;;11.70;67.77;100644.47;5018647;28;21308;-72
2023/12/29 06:08:19;;;;;;;89.68;85.72;;;;;;;11.70;67.83;100639.06;5026892;28;20521;-71
2023/12/29 06:10:45;;;;;;;90.18;86.25;;;;;;;11.70;67.75;100633.66;5014457;28;20034;-72
2023/12/29 06:13:10;;;;;;;89.95;85.68;;;;;;;11.70;67.40;100638.25;5027925;28;20034;-70
2023/12/29 06:15:36;;;;;;;89.75;85.68;;;;;;;11.69;67.57;100621.19;5020212;28;20034;-70
2023/12/29 06:18:02;;;;;;;92.43;88.40;;;;;;;11.70;67.66;100622.00;5015967;28;20069;-69
2023/12/29 06:20:28;;;;;;;93.13;88.75;;;;;;;11.73;67.58;100631.50;5027548;28;20044;-69
2023/12/29 06:22:54;;;;;;;91.90;87.63;;;;;;;11.72;67.35;100622.59;5029852;28;20037;-69
2023/12/29 06:25:19;;;;;;;91.47;86.93;;;;;;;11.70;67.61;100630.94;5020707;28;20030;-69
2023/12/29 06:27:45;;;;;;;90.30;86.20;;;;;;;11.67;67.50;100633.34;5026742;28;20048;-69
2023/12/29 06:30:11;;;;;;;88.05;84.20;;;;;;;11.68;67.35;100626.84;5020918;28;20078;-69
2023/12/29 06:32:36;;;;;;;90.15;86.05;;;;;;;11.69;67.40;100625.78;5018425;28;20100;-70
2023/12/29 06:35:03;;;;;;;87.22;83.18;;;;;;;11.67;67.54;100638.75;5013614;28;20060;-68
2023/12/29 06:37:28;;;;;;;89.30;85.35;;;;;;;11.70;67.43;100638.25;5023713;28;20045;-70
2023/12/29 06:39:54;;;;;;;92.82;88.63;;;;;;;11.69;67.43;100620.34;5017740;28;20034;-70
2023/12/29 06:42:19;;;;;;;92.80;88.57;;;;;;;11.66;67.58;100626.28;5011311;28;20485;-70
2023/12/29 06:44:46;;;;;;;92.65;88.45;;;;;;;11.66;67.75;100629.81;5014403;28;20501;-70
2023/12/29 06:47:11;;;;;;;88.80;84.75;;;;;;;11.66;67.62;100629.00;5022495;28;20042;-70
2023/12/29 06:49:37;;;;;;;88.55;84.63;;;;;;;11.67;67.38;100622.53;5013389;28;20090;-70
2023/12/29 06:52:02;;;;;;;89.30;85.43;;;;;;;11.64;67.71;100626.56;5015383;28;20495;-70
2023/12/29 06:54:28;;;;;;;92.38;88.28;;;;;;;11.64;67.52;100620.31;5020698;28;20107;-70
2023/12/29 06:56:53;;;;;;;91.03;86.93;;;;;;;11.63;67.75;100605.97;5032115;28;20102;-70
2023/12/29 06:59:19;;;;;;;90.82;86.85;;;;;;;11.61;67.49;100601.88;5029125;28;20038;-70
2023/12/29 07:01:46;;;;;;;91.07;86.97;;;;;;;11.62;67.43;100611.66;5019113;28;20549;-70
2023/12/29 07:04:12;;;;;;;88.30;84.20;;;;;;;11.61;67.74;100596.47;5023092;28;20529;-70
2023/12/29 07:06:37;;;;;;;87.07;83.18;;;;;;;11.58;67.65;100607.81;5024976;28;20042;-70
2023/12/29 07:09:03;;;;;;;93.43;89.22;;;;;;;11.59;67.92;100601.31;5015767;28;20032;-70
2023/12/29 07:11:29;;;;;;;89.35;85.45;;;;;;;11.60;67.91;100594.84;5019490;28;20489;-70
2023/12/29 07:13:54;;;;;;;94.57;90.18;;;;;;;11.62;68.00;100596.22;5012476;28;20092;-70
2023/12/29 07:16:20;;;;;;;92.78;88.60;;;;;;;11.62;67.68;100601.63;5047892;28;20069;-70
2023/12/29 07:18:46;;;;;;;92.40;87.97;;;;;;;11.62;67.63;100604.34;5016993;28;20433;-70
2023/12/29 07:21:12;;;;;;;91.63;87.63;;;;;;;11.63;67.95;100589.72;5031326;28;20116;-70
2023/12/29 07:23:38;;;;;;;91.75;86.38;;;;;;;11.65;67.84;100576.78;5040551;28;20112;-70
2023/12/29 07:26:04;;;;;;;89.38;85.50;;;;;;;11.66;67.91;100591.13;5011158;28;20137;-70
2023/12/29 07:28:29;;;;;;;90.18;85.97;;;;;;;11.65;67.80;100598.41;5012804;28;20449;-70
2023/12/29 07:30:54;;;;;;;93.10;88.75;;;;;;;11.64;67.56;100590.53;5012256;28;20061;-70
2023/12/29 07:33:20;;;;;;;90.13;86.05;;;;;;;11.62;67.93;100590.81;5035446;28;20025;-70
2023/12/29 07:35:45;;;;;;;92.80;88.75;;;;;;;11.59;68.08;100599.44;5011703;28;20038;-70
2023/12/29 07:38:11;;;;;;;91.10;87.10;;;;;;;11.61;67.79;100610.00;5028240;28;20463;-70
2023/12/29 07:40:37;;;;;;;89.03;84.72;;;;;;;11.59;67.91;100610.25;5014132;28;20116;-70
2023/12/29 07:43:02;;;;;;;90.35;85.95;;;;;;;11.57;68.06;100612.41;5038113;28;20033;-71
2023/12/29 07:45:27;;;;;;;90.90;86.90;;;;;;;11.56;67.83;100615.34;5013836;28;20038;-70
2023/12/29 07:47:53;;;;;;;89.40;85.30;;;;;;;11.56;67.93;100616.16;5013411;28;20029;-71
2023/12/29 07:50:18;;;;;;;92.60;88.43;;;;;;;11.58;68.13;100616.72;5031329;28;20084;-70
2023/12/29 07:52:44;;;;;;;92.18;88.03;;;;;;;11.57;67.96;100622.41;5028400;28;20034;-71
2023/12/29 07:55:09;;;;;;;89.85;85.95;;;;;;;11.55;67.94;100614.53;5022152;28;20390;-71
2023/12/29 07:57:35;;;;;;;88.22;84.13;;;;;;;11.55;68.32;100619.13;5021018;28;20474;-71
2023/12/29 08:00:01;;;;;;;93.75;89.45;;;;;;;11.56;68.03;100594.50;5022443;28;20381;-71
2023/12/29 08:02:27;;;;;;;88.75;84.82;;;;;;;11.55;68.32;100590.19;5013866;28;20025;-70
2023/12/29 08:04:54;;;;;;;90.18;86.00;;;;;;;11.55;68.33;100594.78;5020025;28;20054;-71
2023/12/29 08:07:19;;;;;;;92.50;88.38;;;;;;;11.54;68.48;100606.66;5020961;28;20029;-71
2023/12/29 08:09:45;;;;;;;92.05;87.95;;;;;;;11.52;68.04;100615.03;5032626;28;20033;-71
2023/12/29 08:12:11;;;;;;;90.90;86.90;;;;;;;11.53;68.19;100616.66;5021712;28;20033;-71
2023/12/29 08:14:36;;;;;;;90.20;86.25;;;;;;;11.55;68.12;100619.94;5021896;28;20030;-71
2023/12/29 08:17:01;;;;;;;91.82;87.38;;;;;;;11.54;68.23;100622.88;5027525;28;20042;-70
2023/12/29 08:19:27;;;;;;;88.43;84.28;;;;;;;11.55;68.09;100638.06;5015563;28;20104;-71
2023/12/29 08:21:52;;;;;;;90.78;86.57;;;;;;;11.57;68.39;100644.06;5019504;28;20025;-71
2023/12/29 08:24:20;;;;;;;92.03;87.95;;;;;;;11.57;68.24;100638.63;5016675;28;20045;-71
2023/12/29 08:26:46;;;;;;;87.95;83.97;;;;;;;11.57;68.36;100641.34;5011696;28;20061;-70
2023/12/29 08:29:12;;;;;;;88.88;84.93;;;;;;;11.57;68.12;100642.16;5013987;28;20045;-70
2023/12/29 08:31:38;;;;;;;91.15;87.15;;;;;;;11.58;68.12;100646.47;5028929;28;20529;-70
2023/12/29 08:34:03;;;;;;;90.47;86.47;;;;;;;11.58;68.27;100640.25;5023555;28;20164;-70
2023/12/29 08:36:29;;;;;;;94.20;88.82;;;;;;;11.59;68.31;100647.28;5030556;28;20048;-69
2023/12/29 08:38:54;;;;;;;93.93;88.93;;;;;;;11.59;67.97;100640.03;5028438;28;20033;-71
2023/12/29 08:41:20;;;;;;;89.80;85.82;;;;;;;11.58;67.98;100649.19;5018382;28;20141;-70
2023/12/29 08:43:45;;;;;;;94.78;90.57;;;;;;;11.56;68.08;100651.31;5011962;28;20041;-70
2023/12/29 08:46:10;;;;;;;90.35;86.28;;;;;;;11.57;68.25;100650.28;5013784;28;20050;-71
2023/12/29 08:48:36;;;;;;;91.03;87.05;;;;;;;11.58;67.95;100662.72;5030129;28;20034;-71
2023/12/29 08:51:01;;;;;;;91.65;87.45;;;;;;;11.57;68.23;100652.97;5026535;28;20041;-71
2023/12/29 08:53:27;;;;;;;93.18;89.07;;;;;;;11.57;67.85;100655.69;5028863;28;20044;-70
2023/12/29 08:55:52;;;;;;;94.72;90.35;;;;;;;11.58;67.96;100664.63;5014956;28;20462;-72
2023/12/29 08:58:17;;;;;;;85.25;81.38;;;;;;;11.57;68.10;100654.88;5025092;28;20052;-71
2023/12/29 09:00:43;;;;;;;92.18;88.22;;;;;;;11.57;68.07;100661.09;5021294;28;20029;-71
2023/12/29 09:03:08;;;;;;;86.93;82.72;;;;;;;11.58;68.24;100657.31;5017532;28;20478;-71
2023/12/29 09:05:34;;;;;;;89.43;85.50;;;;;;;11.60;68.25;100657.88;5036693;28;20076;-70
2023/12/29 09:07:59;;;;;;;93.85;89.78;;;;;;;11.61;68.13;100661.41;5014309;28;20041;-72
2023/12/29 09:10:25;;;;;;;92.15;88.05;;;;;;;11.64;68.23;100658.19;5016566;28;20042;-72
2023/12/29 09:12:50;;;;;;;88.45;84.53;;;;;;;11.66;68.00;100654.16;5023802;28;20488;-72
2023/12/29 09:15:16;;;;;;;90.10;86.20;;;;;;;11.64;67.89;100648.19;5030815;28;20041;-73
2023/12/29 09:17:41;;;;;;;89.00;85.13;;;;;;;11.66;68.19;100654.16;5027090;28;20038;-72
2023/12/29 09:20:07;;;;;;;87.28;83.40;;;;;;;11.67;68.13;100655.00;5029160;28;20461;-70
2023/12/29 09:22:33;;;;;;;86.80;82.97;;;;;;;11.64;68.10;100660.88;5027176;28;20042;-71
2023/12/29 09:24:59;;;;;;;91.45;87.03;;;;;;;11.62;68.34;100650.34;5030751;28;20037;-71
2023/12/29 09:27:24;;;;;;;87.47;83.63;;;;;;;11.62;68.18;100661.16;5020553;28;20115;-71
2023/12/29 09:29:50;;;;;;;90.15;86.25;;;;;;;11.63;68.24;100649.25;5027991;28;20038;-71
2023/12/29 09:32:15;;;;;;;91.32;87.35;;;;;;;11.64;68.13;100650.06;5025041;28;20363;-71
2023/12/29 09:34:42;;;;;;;91.22;87.25;;;;;;;11.62;68.09;100655.75;5023614;28;20034;-71
2023/12/29 09:37:07;;;;;;;92.53;88.43;;;;;;;11.62;68.24;100653.03;5018633;28;20044;-71
2023/12/29 09:39:33;;;;;;;93.15;89.15;;;;;;;11.63;68.07;100651.97;5026842;28;20045;-71
2023/12/29 09:42:03;;;;;;;91.30;87.25;;;;;;;11.63;68.26;100651.16;5022422;28;20033;-71
2023/12/29 09:44:31;;;;;;;86.75;82.85;;;;;;;11.64;68.24;100660.88;5015193;28;20026;-71
2023/12/29 09:47:01;;;;;;;86.05;81.78;;;;;;;11.63;68.20;100659.25;5017051;28;20029;-72
2023/12/29 09:49:35;;;;;;;93.85;89.35;;;;;;;11.62;68.18;100653.03;5027903;28;20033;-70
2023/12/29 09:52:02;;;;;;;90.78;86.72;;;;;;;11.61;68.18;100648.69;5032608;28;20036;-70
2023/12/29 09:54:27;;;;;;;90.03;85.93;;;;;;;11.60;68.03;100663.28;5028117;28;20111;-70
2023/12/29 09:56:54;;;;;;;90.03;85.80;;;;;;;11.60;68.14;100667.88;5022751;28;20429;-69
2023/12/29 09:59:21;;;;;;;91.00;86.97;;;;;;;11.58;68.17;100653.78;5024557;28;20088;-72
2023/12/29 10:01:47;;;;;;;91.88;87.88;;;;;;;11.59;68.21;100658.97;5026131;28;20108;-71
2023/12/29 10:04:12;;;;;;;92.68;88.38;;;;;;;11.58;68.13;100657.31;5020045;28;20132;-71
2023/12/29 10:06:46;;;;;;;88.47;84.47;;;;;;;11.62;68.07;100663.06;5025292;28;20072;-72
2023/12/29 10:09:12;;;;;;;93.68;89.40;;;;;;;11.64;68.10;100667.13;5030483;28;20044;-71
2023/12/29 10:11:38;;;;;;;88.78;84.88;;;;;;;11.65;67.92;100676.88;5031185;28;20505;-72
2023/12/29 10:14:35;;;;;;;90.80;86.70;;;;;;;11.68;67.79;100680.97;5030054;28;20025;-71
2023/12/29 10:17:12;;;;;;;88.05;84.15;;;;;;;11.68;67.64;100681.78;5029697;28;20489;-72
2023/12/29 10:19:45;;;;;;;90.03;86.03;;;;;;;11.69;67.61;100691.56;5029369;28;20065;-71
2023/12/29 10:22:30;;;;;;;90.85;86.53;;;;;;;11.69;67.79;100682.59;5029327;28;20060;-70
2023/12/29 10:24:56;;;;;;;89.85;85.85;;;;;;;11.67;68.06;100698.28;5026792;28;20057;-72
2023/12/29 10:27:22;;;;;;;89.95;85.95;;;;;;;11.66;67.96;100692.03;5012850;28;20065;-71
2023/12/29 10:29:48;;;;;;;89.47;85.60;;;;;;;11.67;68.17;100690.16;5014768;28;20037;-72
2023/12/29 10:32:13;;;;;;;88.95;84.93;;;;;;;11.68;68.05;100695.31;5018009;28;20088;-71
2023/12/29 10:34:39;;;;;;;87.45;83.55;;;;;;;11.69;68.07;100696.13;5020203;28;20034;-71
2023/12/29 10:37:09;;;;;;;91.47;87.32;;;;;;;11.66;68.10;100705.56;5029492;28;20041;-71
2023/12/29 10:39:37;;;;;;;90.50;86.60;;;;;;;11.66;67.68;100708.25;5031169;28;20113;-72
2023/12/29 10:42:07;;;;;;;87.95;84.00;;;;;;;11.68;67.79;100716.16;5018141;28;20478;-73
2023/12/29 10:44:37;;;;;;;85.00;81.20;;;;;;;11.70;67.91;100714.81;5015884;28;20040;-71
2023/12/29 10:47:10;;;;;;;94.25;89.75;;;;;;;11.70;67.65;100716.72;5026499;28;20034;-72
2023/12/29 10:49:35;;;;;;;89.00;85.07;;;;;;;11.72;67.70;100717.28;5015128;28;20037;-70
2023/12/29 10:52:14;;;;;;;95.05;90.97;;;;;;;11.72;67.90;100711.03;5017362;28;20040;-70
2023/12/29 10:54:40;;;;;;;92.05;87.40;;;;;;;11.74;67.98;100711.59;5028179;28;20119;-70
2023/12/29 10:57:07;;;;;;;90.50;86.57;;;;;;;11.73;67.91;100712.69;5032070;28;20044;-72
2023/12/29 10:59:32;;;;;;;87.45;83.55;;;;;;;11.73;67.85;100701.88;5030918;28;20059;-71
2023/12/29 11:02:01;;;;;;;89.22;85.32;;;;;;;11.75;67.87;100703.25;5029877;28;20068;-70
2023/12/29 11:04:26;;;;;;;88.45;84.50;;;;;;;11.77;67.72;100698.41;5028177;28;20061;-70